createdAt,value
2023-04-11T00:35:25.387Z,7.65
2023-04-11T01:05:07.722Z,6.32
2023-04-11T01:07:49.966Z,4.63
2023-04-11T01:16:46.714Z,4.85
2023-04-11T01:19:57.249Z,4.15
2023-04-11T01:22:35.284Z,4.82
2023-04-11T01:30:57.669Z,3.88
2023-04-11T01:39:39.940Z,4.05
2023-04-11T02:01:54.011Z,5.75
2023-04-11T02:04:34.041Z,5.40
2023-04-11T02:15:40.603Z,3.95
2023-04-11T02:27:58.194Z,3.28
2023-04-11T02:33:14.783Z,3.00
2023-04-11T02:57:54.302Z,3.40
2023-04-11T03:03:11.112Z,2.75
2023-04-11T03:05:40.811Z,2.72
2023-04-11T03:11:01.725Z,3.40
2023-04-11T03:16:43.163Z,3.72
2023-04-11T03:19:24.994Z,2.92
2023-04-11T03:21:56.902Z,3.33
2023-04-11T03:24:27.855Z,3.40
2023-04-11T03:32:35.739Z,3.30
2023-04-11T03:40:39.231Z,2.55
2023-04-11T03:43:11.011Z,3.28
2023-04-11T04:02:51.443Z,3.00
2023-04-11T04:08:09.312Z,3.85
2023-04-11T04:22:20.178Z,2.50
2023-04-11T04:28:11.836Z,3.10
2023-04-11T04:30:43.046Z,2.65
2023-04-11T04:39:06.206Z,2.65
2023-04-11T04:41:40.518Z,2.90
2023-04-11T04:47:06.808Z,2.88
2023-04-11T04:52:36.730Z,2.42
2023-04-11T04:55:12.142Z,2.90
2023-04-11T05:00:40.276Z,2.90
2023-04-11T05:11:29.697Z,3.00
2023-04-11T05:14:01.363Z,2.35
2023-04-11T05:16:29.717Z,3.37
2023-04-11T05:19:04.537Z,2.85
2023-04-11T05:21:33.711Z,3.85
2023-04-11T05:24:04.538Z,3.10
2023-04-11T05:26:36.643Z,3.10
2023-04-11T05:29:15.036Z,3.20
2023-04-11T05:31:43.158Z,3.13
2023-04-11T05:34:24.143Z,3.33
2023-04-11T05:37:00.656Z,3.40
2023-04-11T05:39:40.752Z,3.37
2023-04-11T05:45:13.044Z,3.47
2023-04-11T05:50:26.719Z,2.92
2023-04-11T05:53:05.402Z,3.20
2023-04-11T06:01:04.914Z,3.35
2023-04-11T06:03:38.487Z,3.58
2023-04-11T06:06:14.235Z,3.65
2023-04-11T06:08:41.983Z,3.20
2023-04-11T06:11:09.952Z,4.45
2023-04-11T06:13:37.489Z,3.65
2023-04-11T06:16:07.463Z,3.83
2023-04-11T06:18:35.235Z,3.20
2023-04-11T06:21:02.840Z,4.13
2023-04-11T06:23:31.737Z,3.13
2023-04-11T06:25:59.193Z,4.10
2023-04-11T06:28:27.725Z,3.25
2023-04-11T06:30:58.211Z,4.20
2023-04-11T06:33:28.386Z,3.20
2023-04-11T06:35:59.626Z,3.55
2023-04-11T06:41:16.773Z,4.20
2023-04-11T06:44:15.373Z,4.00
2023-04-11T06:46:49.132Z,3.85
2023-04-11T06:49:23.720Z,3.78
2023-04-11T06:51:57.618Z,3.60
2023-04-11T06:54:28.495Z,4.07
2023-04-11T06:57:07.499Z,3.72
2023-04-11T06:59:36.112Z,3.60
2023-04-11T07:02:06.428Z,3.90
2023-04-11T07:04:39.404Z,4.00
2023-04-11T07:09:40.438Z,4.20
2023-04-11T07:12:24.441Z,4.18
2023-04-11T07:14:54.783Z,3.38
2023-04-11T07:17:25.680Z,3.80
2023-04-11T07:20:16.851Z,3.75
2023-04-11T07:22:49.363Z,3.90
2023-04-11T07:25:17.865Z,3.47
2023-04-11T07:27:48.567Z,3.15
2023-04-11T07:30:27.637Z,3.33
2023-04-11T07:33:11.025Z,3.05
2023-04-11T07:35:42.609Z,3.53
2023-04-11T07:38:11.428Z,3.20
2023-04-11T07:40:41.409Z,3.20
2023-04-11T07:43:12.308Z,2.90
2023-04-11T07:45:41.877Z,3.20
2023-04-11T07:48:14.955Z,3.25
2023-04-11T07:53:31.203Z,3.17
2023-04-11T08:01:36.995Z,3.07
2023-04-11T08:04:09.763Z,3.72
2023-04-11T08:06:45.372Z,3.40
2023-04-11T08:09:15.855Z,3.40
2023-04-11T08:11:45.301Z,7.32
2023-04-11T08:14:15.050Z,3.13
2023-04-11T08:16:44.072Z,2.92
2023-04-11T08:19:12.668Z,3.50
2023-04-11T08:21:49.394Z,2.92
2023-04-11T08:24:18.288Z,3.42
2023-04-11T08:26:46.024Z,3.03
2023-04-11T08:29:16.800Z,3.33
2023-04-11T08:31:45.148Z,3.42
2023-04-11T08:34:13.193Z,2.63
2023-04-11T08:36:41.800Z,2.67
2023-04-11T08:39:09.278Z,3.20
2023-04-11T08:41:40.685Z,2.95
2023-04-11T08:44:12.551Z,3.15
2023-04-11T08:46:43.252Z,2.63
2023-04-11T08:49:11.325Z,3.47
2023-04-11T08:51:39.330Z,3.30
2023-04-11T08:54:07.206Z,12.63
2023-04-11T08:56:35.967Z,2.97
2023-04-11T08:59:03.560Z,2.47
2023-04-11T09:01:37.112Z,3.05
2023-04-11T09:04:06.769Z,2.80
2023-04-11T09:06:34.962Z,2.40
2023-04-11T09:09:08.562Z,2.78
2023-04-11T09:11:55.879Z,3.05
2023-04-11T09:14:27.383Z,2.25
2023-04-11T09:17:02.386Z,2.72
2023-04-11T09:19:32.664Z,2.45
2023-04-11T09:22:01.876Z,2.55
2023-04-11T09:24:30.527Z,2.47
2023-04-11T09:27:11.179Z,2.60
2023-04-11T09:29:48.763Z,2.80
2023-04-11T09:32:36.619Z,2.90
2023-04-11T09:35:15.800Z,2.40
2023-04-11T09:37:57.154Z,2.35
2023-04-11T09:40:28.587Z,1.90
2023-04-11T09:43:15.322Z,2.15
2023-04-11T09:45:53.739Z,2.40
2023-04-11T09:48:29.255Z,2.10
2023-04-11T09:51:07.171Z,2.25
2023-04-11T09:53:37.410Z,2.38
2023-04-11T09:56:08.187Z,2.17
2023-04-11T09:58:37.801Z,2.63
2023-04-11T10:01:07.964Z,2.30
2023-04-11T10:03:37.543Z,2.50
2023-04-11T10:06:18.948Z,2.22
2023-04-11T10:08:49.627Z,2.90
2023-04-11T10:11:24.310Z,2.17
2023-04-11T10:13:52.304Z,2.75
2023-04-11T10:16:27.204Z,2.38
2023-04-11T10:18:54.976Z,1.92
2023-04-11T10:21:32.731Z,2.20
2023-04-11T10:24:23.475Z,2.25
2023-04-11T10:27:06.434Z,2.50
2023-04-11T10:29:34.597Z,2.20
2023-04-11T10:32:20.260Z,2.50
2023-04-11T10:34:53.499Z,2.53
2023-04-11T10:37:42.961Z,3.15
2023-04-11T10:40:24.432Z,2.90
2023-04-11T10:42:52.562Z,2.22
2023-04-11T10:45:40.290Z,2.55
2023-04-11T10:48:13.060Z,2.92
2023-04-11T10:50:44.684Z,2.60
2023-04-11T10:53:39.137Z,3.13
2023-04-11T10:56:07.628Z,2.38
2023-04-11T10:58:37.437Z,2.50
2023-04-11T11:01:31.548Z,2.58
2023-04-11T11:04:05.809Z,2.47
2023-04-11T11:06:46.252Z,2.33
2023-04-11T11:09:25.172Z,2.22
2023-04-11T11:12:15.022Z,2.17
2023-04-11T11:14:44.298Z,2.20
2023-04-11T11:17:15.960Z,2.25
2023-04-11T11:19:47.625Z,2.63
2023-04-11T11:22:26.305Z,2.40
2023-04-11T11:24:54.202Z,2.30
2023-04-11T11:27:23.006Z,2.53
2023-04-11T11:29:51.099Z,2.33
2023-04-11T11:32:26.516Z,2.72
2023-04-11T11:34:54.208Z,2.28
2023-04-11T11:37:21.844Z,2.78
2023-04-11T11:39:50.149Z,2.85
2023-04-11T11:42:17.654Z,2.53
2023-04-11T11:44:45.136Z,2.58
2023-04-11T11:47:15.675Z,2.33
2023-04-11T11:49:57.023Z,2.78
2023-04-11T11:52:41.940Z,2.88
2023-04-11T11:55:19.528Z,2.90
2023-04-11T11:57:48.128Z,2.58
2023-04-11T12:00:23.664Z,2.83
2023-04-11T12:02:53.533Z,2.95
2023-04-11T12:05:21.286Z,2.33
2023-04-11T12:07:54.807Z,2.88
2023-04-11T12:10:24.869Z,2.78
2023-04-11T12:12:54.329Z,2.75
2023-04-11T12:15:24.036Z,2.28
2023-04-11T12:17:53.172Z,2.35
2023-04-11T12:20:29.719Z,2.50
2023-04-11T12:22:57.707Z,2.67
2023-04-11T12:25:28.065Z,2.72
2023-04-11T12:27:55.507Z,2.72
2023-04-11T12:30:22.992Z,2.22
2023-04-11T12:32:50.815Z,3.00
2023-04-11T12:35:18.313Z,2.53
2023-04-11T12:37:48.209Z,2.10
2023-04-11T12:40:17.748Z,1.98
2023-04-11T12:42:56.372Z,2.55
2023-04-11T12:45:25.683Z,1.85
2023-04-11T12:47:59.660Z,1.70
2023-04-11T12:50:27.366Z,2.05
2023-04-11T12:52:57.271Z,2.00
2023-04-11T12:55:26.399Z,2.00
2023-04-11T12:57:58.125Z,1.60
2023-04-11T13:00:28.915Z,2.05
2023-04-11T13:03:00.927Z,1.80
2023-04-11T13:08:12.168Z,1.95
2023-04-11T13:10:39.989Z,1.50
2023-04-11T13:13:17.403Z,1.73
2023-04-11T13:15:47.712Z,1.40
2023-04-11T13:18:15.676Z,1.45
2023-04-11T13:20:44.203Z,1.60
2023-04-11T13:23:11.790Z,1.50
2023-04-11T13:25:39.232Z,1.90
2023-04-11T13:28:07.217Z,1.73
2023-04-11T13:30:35.036Z,2.00
2023-04-11T13:33:04.005Z,1.65
2023-04-11T13:35:31.484Z,2.15
2023-04-11T13:37:59.891Z,2.03
2023-04-11T13:40:32.911Z,1.77
2023-04-11T13:43:00.450Z,1.88
2023-04-11T13:45:32.408Z,1.80
2023-04-11T13:48:00.737Z,1.73
2023-04-11T13:50:30.897Z,2.05
2023-04-11T13:53:18.288Z,1.60
2023-04-11T13:55:47.967Z,1.85
2023-04-11T13:58:16.172Z,1.90
2023-04-11T14:00:45.829Z,2.25
2023-04-11T14:03:14.327Z,1.67
2023-04-11T14:05:42.147Z,1.75
2023-04-11T14:08:10.079Z,2.00
2023-04-11T14:10:46.753Z,2.05
2023-04-11T14:13:37.203Z,2.00
2023-04-11T14:16:09.757Z,1.80
2023-04-11T14:18:38.406Z,1.92
2023-04-11T14:21:13.390Z,2.30
2023-04-11T14:26:48.932Z,2.17
2023-04-11T14:29:21.762Z,2.13
2023-04-11T14:31:53.128Z,1.85
2023-04-11T14:34:24.566Z,2.03
2023-04-11T14:36:52.500Z,2.00
2023-04-11T14:39:23.111Z,2.13
2023-04-11T14:41:54.589Z,2.10
2023-04-11T14:44:23.482Z,1.90
2023-04-11T14:46:51.183Z,1.95
2023-04-11T14:49:42.039Z,2.13
2023-04-11T14:52:13.368Z,2.00
2023-04-11T14:54:41.216Z,2.75
2023-04-11T14:57:08.577Z,2.05
2023-04-11T14:59:37.906Z,2.47
2023-04-11T15:02:16.079Z,2.47
2023-04-11T15:04:50.345Z,2.22
2023-04-11T15:07:18.416Z,2.40
2023-04-11T15:12:35.738Z,2.22
2023-04-11T15:15:08.115Z,2.33
2023-04-11T15:17:48.276Z,2.25
2023-04-11T15:20:28.313Z,2.40
2023-04-11T15:23:01.545Z,2.10
2023-04-11T15:25:47.453Z,2.22
2023-04-11T15:28:20.028Z,2.60
2023-04-11T15:31:00.812Z,2.50
2023-04-11T15:33:31.499Z,2.42
2023-04-11T15:36:09.333Z,2.35
2023-04-11T15:38:44.875Z,2.95
2023-04-11T15:41:15.077Z,2.67
2023-04-11T15:43:57.746Z,2.35
2023-04-11T15:46:27.273Z,2.15
2023-04-11T15:48:54.849Z,2.50
2023-04-11T15:51:23.727Z,2.83
2023-04-11T15:53:52.566Z,2.58
2023-04-11T15:56:23.272Z,2.63
2023-04-11T15:58:56.533Z,2.55
2023-04-11T16:01:25.306Z,3.33
2023-04-11T16:03:53.593Z,2.65
2023-04-11T16:06:49.220Z,2.58
2023-04-11T16:09:19.558Z,2.47
2023-04-11T16:11:49.679Z,2.80
2023-04-11T16:14:39.373Z,2.63
2023-04-11T16:17:22.828Z,2.47
2023-04-11T16:22:41.558Z,2.60
2023-04-11T16:25:11.926Z,2.42
2023-04-11T16:27:39.450Z,2.92
2023-04-11T16:30:14.936Z,2.75
2023-04-11T16:32:42.850Z,2.80
2023-04-11T16:35:10.705Z,2.85
2023-04-11T16:37:49.356Z,2.53
2023-04-11T16:40:21.410Z,2.90
2023-04-11T16:42:50.025Z,2.45
2023-04-11T16:45:17.617Z,3.20
2023-04-11T16:47:52.603Z,3.05
2023-04-11T16:50:26.452Z,3.38
2023-04-11T16:52:54.501Z,2.90
2023-04-11T16:55:24.240Z,3.20
2023-04-11T16:57:54.334Z,2.83
2023-04-11T17:00:22.201Z,2.75
2023-04-11T17:02:49.891Z,3.17
2023-04-11T17:05:19.216Z,2.60
2023-04-11T17:07:47.148Z,2.90
2023-04-11T17:10:17.976Z,3.00
2023-04-11T17:12:48.028Z,2.90
2023-04-11T17:15:15.964Z,2.75
2023-04-11T17:17:44.357Z,2.72
2023-04-11T17:20:12.476Z,3.05
2023-04-11T17:22:43.097Z,3.00
2023-04-11T17:25:10.727Z,3.17
2023-04-11T17:27:38.867Z,3.72
2023-04-11T17:30:08.266Z,2.80
2023-04-11T17:32:39.196Z,3.13
2023-04-11T17:35:07.441Z,2.80
2023-04-11T17:37:36.064Z,2.90
2023-04-11T17:40:09.890Z,3.33
2023-04-11T17:42:37.357Z,3.17
2023-04-11T17:45:17.869Z,2.70
2023-04-11T17:47:47.464Z,3.20
2023-04-11T17:50:15.480Z,3.30
2023-04-11T17:52:44.088Z,2.95
2023-04-11T17:55:13.174Z,2.92
2023-04-11T17:57:40.941Z,2.97
2023-04-11T18:00:18.702Z,3.10
2023-04-11T18:02:51.011Z,2.80
2023-04-11T18:05:24.563Z,2.72
2023-04-11T18:07:54.214Z,3.30
2023-04-11T18:10:23.274Z,2.90
2023-04-11T18:12:52.902Z,3.10
2023-04-11T18:15:31.368Z,3.15
2023-04-11T18:20:45.408Z,2.53
2023-04-11T18:28:43.802Z,3.35
2023-04-11T18:31:14.933Z,2.60
2023-04-11T18:33:48.617Z,2.38
2023-04-11T18:36:16.327Z,2.60
2023-04-11T18:38:45.267Z,2.38
2023-04-11T18:41:12.633Z,2.78
2023-04-11T18:43:42.781Z,2.63
2023-04-11T18:46:10.310Z,2.47
2023-04-11T18:48:37.810Z,2.67
2023-04-11T18:51:05.923Z,3.22
2023-04-11T18:53:44.033Z,2.38
2023-04-11T18:56:11.605Z,2.67
2023-04-11T18:58:45.534Z,2.22
2023-04-11T19:01:17.358Z,2.58
2023-04-11T19:03:45.925Z,2.63
2023-04-11T19:06:14.122Z,2.65
2023-04-11T19:08:41.710Z,2.47
2023-04-11T19:11:11.754Z,2.50
2023-04-11T19:13:39.136Z,2.70
2023-04-11T19:16:07.099Z,2.28
2023-04-11T19:18:34.777Z,2.08
2023-04-11T19:21:02.070Z,2.75
2023-04-11T19:23:29.432Z,2.10
2023-04-11T19:25:58.040Z,2.60
2023-04-11T19:28:26.471Z,2.45
2023-04-11T19:30:55.383Z,2.70
2023-04-11T19:33:28.069Z,2.15
2023-04-11T19:36:02.950Z,2.20
2023-04-11T19:38:47.767Z,2.17
2023-04-11T19:41:23.321Z,2.05
2023-04-11T19:43:53.287Z,2.25
2023-04-11T19:46:21.220Z,2.40
2023-04-11T19:48:48.624Z,2.60
2023-04-11T19:51:17.429Z,2.80
2023-04-11T19:53:44.997Z,3.00
2023-04-11T19:56:12.536Z,2.88
2023-04-11T19:58:40.308Z,3.00
2023-04-11T20:01:13.875Z,2.67
2023-04-11T20:03:42.176Z,2.42
2023-04-11T20:06:14.104Z,3.05
2023-04-11T20:08:42.205Z,3.22
2023-04-11T20:11:15.273Z,2.78
2023-04-11T20:16:29.410Z,3.08
2023-04-11T20:19:09.767Z,3.17
2023-04-11T20:21:43.479Z,3.35
2023-04-11T20:24:33.080Z,3.00
2023-04-11T20:27:12.976Z,3.42
2023-04-11T20:29:47.299Z,3.63
2023-04-11T20:32:23.045Z,3.70
2023-04-11T20:34:55.433Z,3.42
2023-04-11T20:37:41.381Z,3.80
2023-04-11T20:40:14.641Z,3.50
2023-04-11T20:42:53.017Z,3.50
2023-04-11T20:45:31.123Z,3.58
2023-04-11T20:48:04.502Z,4.20
2023-04-11T20:50:36.471Z,4.03
2023-04-11T20:53:31.996Z,4.05
2023-04-11T20:56:09.867Z,3.85
2023-04-11T20:58:46.642Z,4.47
2023-04-11T21:01:16.066Z,4.40
2023-04-11T21:03:55.283Z,4.10
2023-04-11T21:06:28.682Z,4.05
2023-04-11T21:09:20.605Z,4.30
2023-04-11T21:11:50.818Z,4.43
2023-04-11T21:14:20.254Z,4.20
2023-04-11T21:16:47.696Z,4.03
2023-04-11T21:19:22.810Z,3.83
2023-04-11T21:21:59.048Z,4.53
2023-04-11T21:24:42.865Z,4.00
2023-04-11T21:27:23.476Z,3.25
2023-04-11T21:29:53.224Z,3.72
2023-04-11T21:32:30.870Z,3.63
2023-04-11T21:35:03.925Z,5.13
2023-04-11T21:40:03.717Z,4.88
2023-04-11T21:45:20.889Z,5.57
2023-04-11T21:50:36.020Z,5.60
2023-04-11T21:53:07.894Z,6.75
2023-04-11T21:55:50.808Z,6.18
2023-04-11T21:58:29.044Z,6.80
2023-04-11T22:03:43.713Z,7.13
2023-04-11T22:06:14.978Z,6.78
2023-04-11T22:08:53.716Z,7.97
2023-04-11T22:11:22.288Z,7.05
2023-04-11T22:13:52.979Z,6.00
2023-04-11T22:16:33.521Z,5.65
2023-04-11T22:19:04.123Z,5.95
2023-04-11T22:21:32.847Z,5.07
2023-04-11T22:24:03.395Z,4.45
2023-04-11T22:26:34.924Z,3.70
2023-04-11T22:29:09.872Z,3.80
2023-04-11T22:31:43.406Z,3.70
2023-04-11T22:34:19.988Z,3.80
2023-04-11T22:39:41.816Z,3.55
2023-04-11T22:42:15.113Z,3.47
2023-04-11T22:44:44.258Z,3.80
2023-04-11T22:47:22.232Z,3.63
2023-04-11T22:50:00.782Z,3.70
2023-04-11T22:52:31.357Z,3.78
2023-04-11T22:55:15.420Z,3.70
2023-04-11T22:57:59.056Z,3.78
2023-04-11T23:00:28.309Z,3.45
2023-04-11T23:02:56.783Z,3.88
2023-04-11T23:05:25.231Z,3.50
2023-04-11T23:07:52.677Z,3.65
2023-04-11T23:10:20.090Z,3.53
2023-04-11T23:12:49.149Z,3.28
2023-04-11T23:15:17.449Z,3.95
2023-04-11T23:17:51.809Z,3.65
2023-04-11T23:20:29.931Z,3.65
2023-04-11T23:23:03.501Z,3.63
2023-04-11T23:25:41.740Z,3.92
2023-04-11T23:28:13.061Z,3.58
2023-04-11T23:30:46.735Z,3.80
2023-04-11T23:33:15.796Z,3.65
2023-04-11T23:35:46.354Z,3.80
2023-04-11T23:38:14.581Z,3.78
2023-04-11T23:40:55.243Z,4.00
2023-04-11T23:43:24.960Z,4.15
2023-04-11T23:45:54.958Z,3.85
2023-04-11T23:48:26.321Z,3.88
2023-04-11T23:51:01.510Z,4.00
2023-04-11T23:53:29.252Z,3.90
2023-04-11T23:55:58.570Z,3.78
2023-04-11T23:58:34.973Z,3.40
